Terminal Aerodrome Forecast
Issued by NWS Wakefield, VA

Home | Current Version | Previous Version | Text Only | Print | Product List | Glossary On
Versions: 1 2 3 4 5 6 7 8 9 10 11 12
000
FTUS41 KAKQ 281720
TAFRIC
TAF
KRIC 281720Z 2818/2918 05004KT P6SM SCT050 SCT250
     FM282300 08004KT P6SM SKC
     FM291200 19006KT P6SM SCT040 BKN250=

USA.gov is the U.S. government's official web portal to all federal, state and local government web resources and services.